sensor_id;sensor_type;location;lat;lon;timestamp;P1;durP1;ratioP1;P2;durP2;ratioP2
23434;SDS011;11890;45.380;11.028;2022-10-30T00:00:51;11.85;;;5.55;;
23434;SDS011;11890;45.380;11.028;2022-10-30T00:03:18;9.52;;;4.38;;
23434;SDS011;11890;45.380;11.028;2022-10-30T00:05:47;11.75;;;5.68;;
23434;SDS011;11890;45.380;11.028;2022-10-30T00:08:17;9.75;;;4.25;;
23434;SDS011;11890;45.380;11.028;2022-10-30T00:10:45;11.32;;;4.93;;
23434;SDS011;11890;45.380;11.028;2022-10-30T00:13:13;8.65;;;4.45;;
23434;SDS011;11890;45.380;11.028;2022-10-30T00:15:45;10.38;;;4.32;;
23434;SDS011;11890;45.380;11.028;2022-10-30T00:18:17;10.18;;;5.25;;
23434;SDS011;11890;45.380;11.028;2022-10-30T00:20:46;13.13;;;4.85;;
23434;SDS011;11890;45.380;11.028;2022-10-30T00:23:14;10.20;;;4.68;;
23434;SDS011;11890;45.380;11.028;2022-10-30T00:25:41;12.65;;;5.97;;
23434;SDS011;11890;45.380;11.028;2022-10-30T00:28:09;9.93;;;4.53;;
23434;SDS011;11890;45.380;11.028;2022-10-30T00:30:36;13.88;;;5.22;;
23434;SDS011;11890;45.380;11.028;2022-10-30T00:33:04;12.82;;;5.07;;
23434;SDS011;11890;45.380;11.028;2022-10-30T00:35:32;8.38;;;5.00;;
23434;SDS011;11890;45.380;11.028;2022-10-30T00:38:01;18.98;;;4.93;;
23434;SDS011;11890;45.380;11.028;2022-10-30T00:40:28;10.00;;;4.82;;
23434;SDS011;11890;45.380;11.028;2022-10-30T00:42:56;8.68;;;4.80;;
23434;SDS011;11890;45.380;11.028;2022-10-30T00:45:23;10.38;;;5.35;;
23434;SDS011;11890;45.380;11.028;2022-10-30T00:47:52;10.45;;;4.78;;
23434;SDS011;11890;45.380;11.028;2022-10-30T00:50:24;9.07;;;5.22;;
23434;SDS011;11890;45.380;11.028;2022-10-30T00:52:59;7.90;;;4.43;;
23434;SDS011;11890;45.380;11.028;2022-10-30T00:55:32;13.30;;;5.60;;
23434;SDS011;11890;45.380;11.028;2022-10-30T01:00:33;10.05;;;5.20;;
23434;SDS011;11890;45.380;11.028;2022-10-30T01:03:02;8.35;;;5.32;;
23434;SDS011;11890;45.380;11.028;2022-10-30T01:05:30;10.02;;;4.78;;
23434;SDS011;11890;45.380;11.028;2022-10-30T01:07:59;16.05;;;5.32;;
23434;SDS011;11890;45.380;11.028;2022-10-30T01:10:27;13.35;;;5.97;;
23434;SDS011;11890;45.380;11.028;2022-10-30T01:12:55;9.30;;;4.95;;
23434;SDS011;11890;45.380;11.028;2022-10-30T01:15:29;13.02;;;6.35;;
23434;SDS011;11890;45.380;11.028;2022-10-30T01:23:47;12.13;;;5.03;;
23434;SDS011;11890;45.380;11.028;2022-10-30T01:26:37;9.77;;;4.88;;
23434;SDS011;11890;45.380;11.028;2022-10-30T01:32:21;13.27;;;5.43;;
23434;SDS011;11890;45.380;11.028;2022-10-30T01:34:57;8.38;;;4.82;;
23434;SDS011;11890;45.380;11.028;2022-10-30T01:37:32;10.48;;;4.28;;
23434;SDS011;11890;45.380;11.028;2022-10-30T01:40:12;10.48;;;5.43;;
23434;SDS011;11890;45.380;11.028;2022-10-30T01:42:53;11.32;;;5.18;;
23434;SDS011;11890;45.380;11.028;2022-10-30T01:48:28;10.73;;;4.30;;
23434;SDS011;11890;45.380;11.028;2022-10-30T01:51:11;9.10;;;4.78;;
23434;SDS011;11890;45.380;11.028;2022-10-30T01:53:44;10.90;;;5.32;;
23434;SDS011;11890;45.380;11.028;2022-10-30T01:59:08;8.52;;;4.43;;
23434;SDS011;11890;45.380;11.028;2022-10-30T02:01:37;7.65;;;4.97;;
23434;SDS011;11890;45.380;11.028;2022-10-30T02:04:06;13.02;;;5.15;;
23434;SDS011;11890;45.380;11.028;2022-10-30T02:06:35;8.48;;;4.05;;
23434;SDS011;11890;45.380;11.028;2022-10-30T02:09:04;9.60;;;4.57;;
23434;SDS011;11890;45.380;11.028;2022-10-30T02:11:33;9.07;;;4.47;;
23434;SDS011;11890;45.380;11.028;2022-10-30T02:14:03;9.55;;;4.47;;
23434;SDS011;11890;45.380;11.028;2022-10-30T02:16:32;12.25;;;4.72;;
23434;SDS011;11890;45.380;11.028;2022-10-30T02:19:03;11.98;;;5.15;;
23434;SDS011;11890;45.380;11.028;2022-10-30T02:21:32;9.52;;;4.60;;
23434;SDS011;11890;45.380;11.028;2022-10-30T02:23:59;8.60;;;4.93;;
23434;SDS011;11890;45.380;11.028;2022-10-30T02:26:27;9.68;;;5.43;;
23434;SDS011;11890;45.380;11.028;2022-10-30T02:28:54;13.32;;;5.10;;
23434;SDS011;11890;45.380;11.028;2022-10-30T02:31:22;11.15;;;4.65;;
23434;SDS011;11890;45.380;11.028;2022-10-30T02:33:50;9.75;;;5.22;;
23434;SDS011;11890;45.380;11.028;2022-10-30T02:36:18;10.15;;;4.95;;
23434;SDS011;11890;45.380;11.028;2022-10-30T02:38:46;13.93;;;6.03;;
23434;SDS011;11890;45.380;11.028;2022-10-30T02:41:14;10.02;;;4.78;;
23434;SDS011;11890;45.380;11.028;2022-10-30T02:43:42;12.50;;;5.50;;
23434;SDS011;11890;45.380;11.028;2022-10-30T02:46:09;8.32;;;4.50;;
23434;SDS011;11890;45.380;11.028;2022-10-30T02:48:36;13.45;;;4.70;;
23434;SDS011;11890;45.380;11.028;2022-10-30T02:51:04;8.98;;;4.53;;
23434;SDS011;11890;45.380;11.028;2022-10-30T02:53:32;8.43;;;4.95;;
23434;SDS011;11890;45.380;11.028;2022-10-30T02:56:03;14.60;;;5.45;;
23434;SDS011;11890;45.380;11.028;2022-10-30T02:58:32;7.57;;;4.37;;
23434;SDS011;11890;45.380;11.028;2022-10-30T03:01:04;7.85;;;4.30;;
23434;SDS011;11890;45.380;11.028;2022-10-30T03:03:36;12.77;;;5.55;;
23434;SDS011;11890;45.380;11.028;2022-10-30T03:06:04;9.30;;;4.53;;
23434;SDS011;11890;45.380;11.028;2022-10-30T03:08:34;8.10;;;4.78;;
23434;SDS011;11890;45.380;11.028;2022-10-30T03:11:10;13.60;;;4.97;;
23434;SDS011;11890;45.380;11.028;2022-10-30T03:13:41;8.05;;;4.68;;
23434;SDS011;11890;45.380;11.028;2022-10-30T03:16:11;9.98;;;4.25;;
23434;SDS011;11890;45.380;11.028;2022-10-30T03:18:40;10.82;;;4.85;;
23434;SDS011;11890;45.380;11.028;2022-10-30T03:21:10;9.32;;;5.22;;
23434;SDS011;11890;45.380;11.028;2022-10-30T03:23:40;7.70;;;4.47;;
23434;SDS011;11890;45.380;11.028;2022-10-30T03:26:07;11.55;;;4.55;;
23434;SDS011;11890;45.380;11.028;2022-10-30T03:28:43;10.05;;;5.32;;
23434;SDS011;11890;45.380;11.028;2022-10-30T03:31:12;6.68;;;4.35;;
23434;SDS011;11890;45.380;11.028;2022-10-30T03:33:41;13.63;;;4.25;;
23434;SDS011;11890;45.380;11.028;2022-10-30T03:36:11;13.73;;;4.95;;
23434;SDS011;11890;45.380;11.028;2022-10-30T03:38:40;11.85;;;4.85;;
23434;SDS011;11890;45.380;11.028;2022-10-30T03:41:09;11.07;;;5.10;;
23434;SDS011;11890;45.380;11.028;2022-10-30T03:43:37;10.57;;;5.07;;
23434;SDS011;11890;45.380;11.028;2022-10-30T03:46:04;13.35;;;5.38;;
23434;SDS011;11890;45.380;11.028;2022-10-30T03:48:32;9.82;;;4.72;;
23434;SDS011;11890;45.380;11.028;2022-10-30T03:51:00;13.13;;;4.72;;
23434;SDS011;11890;45.380;11.028;2022-10-30T03:53:28;14.00;;;5.50;;
23434;SDS011;11890;45.380;11.028;2022-10-30T03:55:57;11.85;;;5.20;;
23434;SDS011;11890;45.380;11.028;2022-10-30T03:58:27;12.82;;;5.55;;
23434;SDS011;11890;45.380;11.028;2022-10-30T04:01:02;12.52;;;5.40;;
23434;SDS011;11890;45.380;11.028;2022-10-30T04:03:34;9.02;;;4.25;;
23434;SDS011;11890;45.380;11.028;2022-10-30T04:06:02;8.13;;;4.20;;
23434;SDS011;11890;45.380;11.028;2022-10-30T04:08:29;10.05;;;5.45;;
23434;SDS011;11890;45.380;11.028;2022-10-30T04:10:56;14.82;;;5.63;;
23434;SDS011;11890;45.380;11.028;2022-10-30T04:13:24;11.05;;;4.72;;
23434;SDS011;11890;45.380;11.028;2022-10-30T04:15:52;7.63;;;4.88;;
23434;SDS011;11890;45.380;11.028;2022-10-30T04:18:25;12.43;;;5.07;;
23434;SDS011;11890;45.380;11.028;2022-10-30T04:20:53;13.20;;;6.55;;
23434;SDS011;11890;45.380;11.028;2022-10-30T04:23:21;10.93;;;4.35;;
23434;SDS011;11890;45.380;11.028;2022-10-30T04:25:49;11.57;;;5.13;;
23434;SDS011;11890;45.380;11.028;2022-10-30T04:28:17;11.95;;;4.85;;
23434;SDS011;11890;45.380;11.028;2022-10-30T04:30:46;14.43;;;4.57;;
23434;SDS011;11890;45.380;11.028;2022-10-30T04:33:15;9.82;;;5.03;;
23434;SDS011;11890;45.380;11.028;2022-10-30T04:35:43;6.35;;;4.30;;
23434;SDS011;11890;45.380;11.028;2022-10-30T04:38:14;7.93;;;4.30;;
23434;SDS011;11890;45.380;11.028;2022-10-30T04:40:45;11.75;;;4.20;;
23434;SDS011;11890;45.380;11.028;2022-10-30T04:43:13;10.50;;;4.25;;
23434;SDS011;11890;45.380;11.028;2022-10-30T04:45:42;10.30;;;5.57;;
23434;SDS011;11890;45.380;11.028;2022-10-30T04:48:12;10.68;;;4.68;;
23434;SDS011;11890;45.380;11.028;2022-10-30T04:50:41;10.43;;;5.05;;
23434;SDS011;11890;45.380;11.028;2022-10-30T04:53:16;10.00;;;4.10;;
23434;SDS011;11890;45.380;11.028;2022-10-30T04:55:47;7.85;;;3.83;;
23434;SDS011;11890;45.380;11.028;2022-10-30T04:58:19;6.97;;;4.23;;
23434;SDS011;11890;45.380;11.028;2022-10-30T05:00:53;9.05;;;4.85;;
23434;SDS011;11890;45.380;11.028;2022-10-30T05:03:27;11.70;;;4.78;;
23434;SDS011;11890;45.380;11.028;2022-10-30T05:06:05;7.53;;;4.65;;
23434;SDS011;11890;45.380;11.028;2022-10-30T05:08:38;12.68;;;5.10;;
23434;SDS011;11890;45.380;11.028;2022-10-30T05:11:15;19.38;;;6.15;;
23434;SDS011;11890;45.380;11.028;2022-10-30T05:13:43;7.93;;;4.82;;
23434;SDS011;11890;45.380;11.028;2022-10-30T05:16:11;11.70;;;5.20;;
23434;SDS011;11890;45.380;11.028;2022-10-30T05:18:38;9.32;;;4.40;;
23434;SDS011;11890;45.380;11.028;2022-10-30T05:21:05;11.05;;;5.22;;
23434;SDS011;11890;45.380;11.028;2022-10-30T05:23:33;11.80;;;5.20;;
23434;SDS011;11890;45.380;11.028;2022-10-30T05:26:01;8.30;;;4.35;;
23434;SDS011;11890;45.380;11.028;2022-10-30T05:28:29;9.27;;;4.30;;
23434;SDS011;11890;45.380;11.028;2022-10-30T05:30:57;9.70;;;4.97;;
23434;SDS011;11890;45.380;11.028;2022-10-30T05:33:44;11.65;;;4.55;;
23434;SDS011;11890;45.380;11.028;2022-10-30T05:36:12;11.25;;;4.13;;
23434;SDS011;11890;45.380;11.028;2022-10-30T05:38:40;12.57;;;4.72;;
23434;SDS011;11890;45.380;11.028;2022-10-30T05:41:13;12.23;;;5.77;;
23434;SDS011;11890;45.380;11.028;2022-10-30T05:43:40;9.50;;;5.55;;
23434;SDS011;11890;45.380;11.028;2022-10-30T05:46:07;9.95;;;4.97;;
23434;SDS011;11890;45.380;11.028;2022-10-30T05:48:34;11.43;;;4.50;;
23434;SDS011;11890;45.380;11.028;2022-10-30T05:51:02;12.15;;;6.10;;
23434;SDS011;11890;45.380;11.028;2022-10-30T05:53:30;10.95;;;4.90;;
23434;SDS011;11890;45.380;11.028;2022-10-30T05:55:58;9.82;;;4.50;;
23434;SDS011;11890;45.380;11.028;2022-10-30T05:58:32;9.05;;;4.57;;
23434;SDS011;11890;45.380;11.028;2022-10-30T06:01:05;11.00;;;5.43;;
23434;SDS011;11890;45.380;11.028;2022-10-30T06:03:40;9.52;;;4.50;;
23434;SDS011;11890;45.380;11.028;2022-10-30T06:06:07;8.98;;;5.25;;
23434;SDS011;11890;45.380;11.028;2022-10-30T06:08:35;10.80;;;4.53;;
23434;SDS011;11890;45.380;11.028;2022-10-30T06:11:23;10.32;;;5.40;;
23434;SDS011;11890;45.380;11.028;2022-10-30T06:13:53;9.50;;;4.55;;
23434;SDS011;11890;45.380;11.028;2022-10-30T06:16:33;11.65;;;5.47;;
23434;SDS011;11890;45.380;11.028;2022-10-30T06:19:13;11.82;;;5.13;;
23434;SDS011;11890;45.380;11.028;2022-10-30T06:21:45;16.27;;;5.90;;
23434;SDS011;11890;45.380;11.028;2022-10-30T06:24:16;9.68;;;5.03;;
23434;SDS011;11890;45.380;11.028;2022-10-30T06:27:03;13.70;;;4.80;;
23434;SDS011;11890;45.380;11.028;2022-10-30T06:29:30;10.45;;;4.50;;
23434;SDS011;11890;45.380;11.028;2022-10-30T06:31:58;14.05;;;5.38;;
23434;SDS011;11890;45.380;11.028;2022-10-30T06:34:32;9.23;;;5.18;;
23434;SDS011;11890;45.380;11.028;2022-10-30T06:36:59;10.38;;;5.80;;
23434;SDS011;11890;45.380;11.028;2022-10-30T06:39:27;11.55;;;5.30;;
23434;SDS011;11890;45.380;11.028;2022-10-30T06:42:14;12.25;;;6.05;;
23434;SDS011;11890;45.380;11.028;2022-10-30T06:44:53;10.73;;;4.85;;
23434;SDS011;11890;45.380;11.028;2022-10-30T06:47:20;11.27;;;5.45;;
23434;SDS011;11890;45.380;11.028;2022-10-30T06:49:47;15.10;;;4.93;;
23434;SDS011;11890;45.380;11.028;2022-10-30T06:52:15;12.68;;;5.65;;
23434;SDS011;11890;45.380;11.028;2022-10-30T06:54:42;13.25;;;5.93;;
23434;SDS011;11890;45.380;11.028;2022-10-30T06:57:30;11.23;;;5.80;;
23434;SDS011;11890;45.380;11.028;2022-10-30T07:00:23;9.88;;;5.50;;
23434;SDS011;11890;45.380;11.028;2022-10-30T07:03:17;22.13;;;10.55;;
23434;SDS011;11890;45.380;11.028;2022-10-30T07:05:45;13.38;;;6.78;;
23434;SDS011;11890;45.380;11.028;2022-10-30T07:08:13;17.35;;;7.55;;
23434;SDS011;11890;45.380;11.028;2022-10-30T07:10:41;31.08;;;15.77;;
23434;SDS011;11890;45.380;11.028;2022-10-30T07:13:29;15.90;;;8.63;;
23434;SDS011;11890;45.380;11.028;2022-10-30T07:16:16;13.10;;;7.57;;
23434;SDS011;11890;45.380;11.028;2022-10-30T07:18:46;10.32;;;6.28;;
23434;SDS011;11890;45.380;11.028;2022-10-30T07:21:14;15.50;;;7.68;;
23434;SDS011;11890;45.380;11.028;2022-10-30T07:23:41;13.82;;;6.47;;
23434;SDS011;11890;45.380;11.028;2022-10-30T07:26:24;11.80;;;6.35;;
23434;SDS011;11890;45.380;11.028;2022-10-30T07:28:53;16.58;;;7.38;;
23434;SDS011;11890;45.380;11.028;2022-10-30T07:31:44;13.73;;;6.32;;
23434;SDS011;11890;45.380;11.028;2022-10-30T07:34:32;51.47;;;21.60;;
23434;SDS011;11890;45.380;11.028;2022-10-30T07:37:24;15.50;;;8.13;;
23434;SDS011;11890;45.380;11.028;2022-10-30T07:40:10;16.02;;;7.13;;
23434;SDS011;11890;45.380;11.028;2022-10-30T07:43:02;15.07;;;7.38;;
23434;SDS011;11890;45.380;11.028;2022-10-30T07:45:36;14.10;;;6.93;;
23434;SDS011;11890;45.380;11.028;2022-10-30T07:48:43;17.60;;;7.63;;
23434;SDS011;11890;45.380;11.028;2022-10-30T07:51:22;11.80;;;5.93;;
23434;SDS011;11890;45.380;11.028;2022-10-30T07:53:50;21.02;;;8.20;;
23434;SDS011;11890;45.380;11.028;2022-10-30T07:56:19;16.02;;;7.47;;
23434;SDS011;11890;45.380;11.028;2022-10-30T07:58:52;15.52;;;7.72;;
23434;SDS011;11890;45.380;11.028;2022-10-30T08:01:38;12.40;;;6.85;;
23434;SDS011;11890;45.380;11.028;2022-10-30T08:04:22;18.33;;;10.02;;
23434;SDS011;11890;45.380;11.028;2022-10-30T08:06:54;16.85;;;8.00;;
23434;SDS011;11890;45.380;11.028;2022-10-30T08:09:22;26.25;;;11.20;;
23434;SDS011;11890;45.380;11.028;2022-10-30T08:11:49;17.77;;;8.90;;
23434;SDS011;11890;45.380;11.028;2022-10-30T08:14:16;14.35;;;7.55;;
23434;SDS011;11890;45.380;11.028;2022-10-30T08:16:44;19.80;;;9.13;;
23434;SDS011;11890;45.380;11.028;2022-10-30T08:19:11;19.77;;;9.05;;
23434;SDS011;11890;45.380;11.028;2022-10-30T08:21:39;15.02;;;8.45;;
23434;SDS011;11890;45.380;11.028;2022-10-30T08:24:12;16.23;;;8.83;;
23434;SDS011;11890;45.380;11.028;2022-10-30T08:26:43;15.88;;;8.73;;
23434;SDS011;11890;45.380;11.028;2022-10-30T08:29:11;16.05;;;8.45;;
23434;SDS011;11890;45.380;11.028;2022-10-30T08:31:39;21.55;;;8.00;;
23434;SDS011;11890;45.380;11.028;2022-10-30T08:34:22;14.43;;;8.75;;
23434;SDS011;11890;45.380;11.028;2022-10-30T08:36:52;22.08;;;9.48;;
23434;SDS011;11890;45.380;11.028;2022-10-30T08:39:19;15.82;;;8.43;;
23434;SDS011;11890;45.380;11.028;2022-10-30T08:42:16;17.35;;;8.68;;
23434;SDS011;11890;45.380;11.028;2022-10-30T08:44:43;21.60;;;9.85;;
23434;SDS011;11890;45.380;11.028;2022-10-30T08:47:23;14.35;;;7.80;;
23434;SDS011;11890;45.380;11.028;2022-10-30T08:49:50;18.58;;;9.20;;
23434;SDS011;11890;45.380;11.028;2022-10-30T08:52:20;20.42;;;9.63;;
23434;SDS011;11890;45.380;11.028;2022-10-30T08:54:53;19.55;;;9.10;;
23434;SDS011;11890;45.380;11.028;2022-10-30T08:57:23;21.17;;;9.77;;
23434;SDS011;11890;45.380;11.028;2022-10-30T08:59:52;19.23;;;10.20;;
23434;SDS011;11890;45.380;11.028;2022-10-30T09:02:38;17.08;;;9.95;;
23434;SDS011;11890;45.380;11.028;2022-10-30T09:05:24;18.83;;;8.88;;
23434;SDS011;11890;45.380;11.028;2022-10-30T09:08:20;20.10;;;9.63;;
23434;SDS011;11890;45.380;11.028;2022-10-30T09:11:06;25.70;;;12.23;;
23434;SDS011;11890;45.380;11.028;2022-10-30T09:13:34;18.83;;;9.82;;
23434;SDS011;11890;45.380;11.028;2022-10-30T09:16:03;27.58;;;10.30;;
23434;SDS011;11890;45.380;11.028;2022-10-30T09:18:34;18.67;;;10.60;;
23434;SDS011;11890;45.380;11.028;2022-10-30T09:21:01;19.00;;;9.82;;
23434;SDS011;11890;45.380;11.028;2022-10-30T09:23:35;19.27;;;10.18;;
23434;SDS011;11890;45.380;11.028;2022-10-30T09:26:35;23.77;;;10.70;;
23434;SDS011;11890;45.380;11.028;2022-10-30T09:29:23;18.27;;;10.40;;
23434;SDS011;11890;45.380;11.028;2022-10-30T09:31:53;22.05;;;9.70;;
23434;SDS011;11890;45.380;11.028;2022-10-30T09:34:23;18.92;;;9.48;;
23434;SDS011;11890;45.380;11.028;2022-10-30T09:36:57;22.23;;;10.68;;
23434;SDS011;11890;45.380;11.028;2022-10-30T09:39:24;21.70;;;10.27;;
23434;SDS011;11890;45.380;11.028;2022-10-30T09:47:32;19.85;;;10.60;;
23434;SDS011;11890;45.380;11.028;2022-10-30T09:58:58;18.10;;;10.25;;
23434;SDS011;11890;45.380;11.028;2022-10-30T10:04:24;17.90;;;9.02;;
23434;SDS011;11890;45.380;11.028;2022-10-30T10:07:18;16.55;;;7.80;;
23434;SDS011;11890;45.380;11.028;2022-10-30T10:09:53;18.95;;;8.77;;
23434;SDS011;11890;45.380;11.028;2022-10-30T10:12:52;17.02;;;8.57;;
23434;SDS011;11890;45.380;11.028;2022-10-30T10:18:24;14.90;;;8.10;;
23434;SDS011;11890;45.380;11.028;2022-10-30T10:20:56;17.63;;;9.30;;
23434;SDS011;11890;45.380;11.028;2022-10-30T10:56:21;14.95;;;8.32;;
23434;SDS011;11890;45.380;11.028;2022-10-30T10:58:59;19.10;;;8.40;;
23434;SDS011;11890;45.380;11.028;2022-10-30T11:01:39;15.88;;;7.47;;
23434;SDS011;11890;45.380;11.028;2022-10-30T11:04:17;15.65;;;8.23;;
23434;SDS011;11890;45.380;11.028;2022-10-30T11:07:21;16.70;;;8.80;;
23434;SDS011;11890;45.380;11.028;2022-10-30T11:09:53;14.10;;;7.05;;
23434;SDS011;11890;45.380;11.028;2022-10-30T11:12:24;14.43;;;7.55;;
23434;SDS011;11890;45.380;11.028;2022-10-30T11:15:06;11.82;;;6.18;;
23434;SDS011;11890;45.380;11.028;2022-10-30T11:17:41;19.38;;;8.90;;
23434;SDS011;11890;45.380;11.028;2022-10-30T11:20:20;15.68;;;9.00;;
23434;SDS011;11890;45.380;11.028;2022-10-30T11:22:55;17.58;;;7.32;;
23434;SDS011;11890;45.380;11.028;2022-10-30T11:25:24;17.25;;;8.27;;
23434;SDS011;11890;45.380;11.028;2022-10-30T11:27:59;20.00;;;8.07;;
23434;SDS011;11890;45.380;11.028;2022-10-30T11:30:29;15.25;;;8.82;;
23434;SDS011;11890;45.380;11.028;2022-10-30T11:32:57;19.73;;;9.15;;
23434;SDS011;11890;45.380;11.028;2022-10-30T11:35:25;14.27;;;8.52;;
23434;SDS011;11890;45.380;11.028;2022-10-30T11:38:17;19.55;;;9.98;;
23434;SDS011;11890;45.380;11.028;2022-10-30T11:40:47;18.52;;;8.65;;
23434;SDS011;11890;45.380;11.028;2022-10-30T11:43:19;13.88;;;7.88;;
23434;SDS011;11890;45.380;11.028;2022-10-30T11:45:49;15.93;;;8.27;;
23434;SDS011;11890;45.380;11.028;2022-10-30T11:48:28;16.20;;;8.35;;
23434;SDS011;11890;45.380;11.028;2022-10-30T11:50:59;22.13;;;9.25;;
23434;SDS011;11890;45.380;11.028;2022-10-30T11:56:25;16.00;;;8.45;;
23434;SDS011;11890;45.380;11.028;2022-10-30T11:59:00;17.52;;;9.13;;
23434;SDS011;11890;45.380;11.028;2022-10-30T12:01:38;18.15;;;8.65;;
23434;SDS011;11890;45.380;11.028;2022-10-30T12:04:23;19.50;;;8.25;;
23434;SDS011;11890;45.380;11.028;2022-10-30T12:07:13;18.90;;;8.55;;
23434;SDS011;11890;45.380;11.028;2022-10-30T12:09:49;16.80;;;8.32;;
23434;SDS011;11890;45.380;11.028;2022-10-30T12:12:23;16.98;;;7.55;;
23434;SDS011;11890;45.380;11.028;2022-10-30T12:14:53;15.02;;;7.60;;
23434;SDS011;11890;45.380;11.028;2022-10-30T12:17:21;14.52;;;7.28;;
23434;SDS011;11890;45.380;11.028;2022-10-30T12:19:49;11.52;;;6.60;;
23434;SDS011;11890;45.380;11.028;2022-10-30T12:22:27;11.73;;;6.82;;
23434;SDS011;11890;45.380;11.028;2022-10-30T12:25:00;15.75;;;7.97;;
23434;SDS011;11890;45.380;11.028;2022-10-30T12:27:30;12.52;;;6.63;;
23434;SDS011;11890;45.380;11.028;2022-10-30T12:32:39;26.55;;;12.55;;
23434;SDS011;11890;45.380;11.028;2022-10-30T12:38:31;11.50;;;5.80;;
23434;SDS011;11890;45.380;11.028;2022-10-30T12:41:15;36.63;;;18.63;;
23434;SDS011;11890;45.380;11.028;2022-10-30T12:43:58;31.90;;;17.02;;
23434;SDS011;11890;45.380;11.028;2022-10-30T12:49:30;12.30;;;5.95;;
23434;SDS011;11890;45.380;11.028;2022-10-30T12:52:15;11.88;;;5.70;;
23434;SDS011;11890;45.380;11.028;2022-10-30T12:57:58;11.35;;;5.60;;
23434;SDS011;11890;45.380;11.028;2022-10-30T13:00:44;17.00;;;6.95;;
23434;SDS011;11890;45.380;11.028;2022-10-30T13:03:25;11.80;;;5.57;;
23434;SDS011;11890;45.380;11.028;2022-10-30T13:06:16;11.23;;;5.32;;
23434;SDS011;11890;45.380;11.028;2022-10-30T13:12:07;14.15;;;6.32;;
23434;SDS011;11890;45.380;11.028;2022-10-30T13:14:41;15.35;;;6.45;;
23434;SDS011;11890;45.380;11.028;2022-10-30T13:17:14;13.95;;;6.70;;
23434;SDS011;11890;45.380;11.028;2022-10-30T13:19:45;10.55;;;6.30;;
23434;SDS011;11890;45.380;11.028;2022-10-30T13:22:16;12.52;;;6.13;;
23434;SDS011;11890;45.380;11.028;2022-10-30T13:30:16;14.63;;;6.25;;
23434;SDS011;11890;45.380;11.028;2022-10-30T13:50:34;17.10;;;7.05;;
23434;SDS011;11890;45.380;11.028;2022-10-30T13:53:19;17.92;;;6.32;;
23434;SDS011;11890;45.380;11.028;2022-10-30T13:55:51;13.57;;;6.55;;
23434;SDS011;11890;45.380;11.028;2022-10-30T13:58:23;13.88;;;6.40;;
23434;SDS011;11890;45.380;11.028;2022-10-30T14:01:04;12.23;;;6.25;;
23434;SDS011;11890;45.380;11.028;2022-10-30T14:09:38;12.52;;;5.88;;
23434;SDS011;11890;45.380;11.028;2022-10-30T14:15:33;12.00;;;5.72;;
23434;SDS011;11890;45.380;11.028;2022-10-30T14:20:38;14.32;;;6.07;;
23434;SDS011;11890;45.380;11.028;2022-10-30T14:23:07;16.58;;;7.40;;
23434;SDS011;11890;45.380;11.028;2022-10-30T14:25:38;14.30;;;6.13;;
23434;SDS011;11890;45.380;11.028;2022-10-30T14:28:18;11.05;;;5.13;;
23434;SDS011;11890;45.380;11.028;2022-10-30T14:30:47;15.98;;;5.88;;
23434;SDS011;11890;45.380;11.028;2022-10-30T14:36:13;10.60;;;4.50;;
23434;SDS011;11890;45.380;11.028;2022-10-30T14:50:02;11.40;;;4.32;;
23434;SDS011;11890;45.380;11.028;2022-10-30T14:58:34;12.57;;;4.25;;
23434;SDS011;11890;45.380;11.028;2022-10-30T15:14:14;11.05;;;4.20;;
23434;SDS011;11890;45.380;11.028;2022-10-30T15:20:12;14.43;;;4.82;;
23434;SDS011;11890;45.380;11.028;2022-10-30T15:23:13;14.18;;;4.88;;
23434;SDS011;11890;45.380;11.028;2022-10-30T15:25:57;13.20;;;4.43;;
23434;SDS011;11890;45.380;11.028;2022-10-30T15:28:34;11.10;;;3.92;;
23434;SDS011;11890;45.380;11.028;2022-10-30T15:31:19;15.10;;;4.43;;
23434;SDS011;11890;45.380;11.028;2022-10-30T15:33:51;7.25;;;2.97;;
23434;SDS011;11890;45.380;11.028;2022-10-30T15:36:53;10.15;;;3.10;;
23434;SDS011;11890;45.380;11.028;2022-10-30T15:39:14;10.48;;;3.65;;
23434;SDS011;11890;45.380;11.028;2022-10-30T15:41:54;11.63;;;4.93;;
23434;SDS011;11890;45.380;11.028;2022-10-30T15:44:29;11.18;;;3.97;;
23434;SDS011;11890;45.380;11.028;2022-10-30T15:47:00;8.57;;;4.53;;
23434;SDS011;11890;45.380;11.028;2022-10-30T15:49:36;12.15;;;3.20;;
23434;SDS011;11890;45.380;11.028;2022-10-30T15:52:40;11.23;;;3.95;;
23434;SDS011;11890;45.380;11.028;2022-10-30T15:55:03;12.45;;;3.80;;
23434;SDS011;11890;45.380;11.028;2022-10-30T15:57:34;16.40;;;4.22;;
23434;SDS011;11890;45.380;11.028;2022-10-30T16:00:32;17.30;;;3.85;;
23434;SDS011;11890;45.380;11.028;2022-10-30T16:05:29;13.35;;;3.97;;
23434;SDS011;11890;45.380;11.028;2022-10-30T16:07:58;19.13;;;3.83;;
23434;SDS011;11890;45.380;11.028;2022-10-30T16:10:33;8.13;;;3.08;;
23434;SDS011;11890;45.380;11.028;2022-10-30T16:13:02;11.32;;;4.05;;
23434;SDS011;11890;45.380;11.028;2022-10-30T16:15:33;14.63;;;4.65;;
23434;SDS011;11890;45.380;11.028;2022-10-30T16:18:06;14.55;;;5.90;;
23434;SDS011;11890;45.380;11.028;2022-10-30T16:20:34;8.60;;;3.50;;
23434;SDS011;11890;45.380;11.028;2022-10-30T16:23:02;10.02;;;4.63;;
23434;SDS011;11890;45.380;11.028;2022-10-30T16:25:31;13.40;;;3.97;;
23434;SDS011;11890;45.380;11.028;2022-10-30T16:28:03;11.63;;;3.58;;
23434;SDS011;11890;45.380;11.028;2022-10-30T16:30:31;13.55;;;4.15;;
23434;SDS011;11890;45.380;11.028;2022-10-30T16:33:00;10.98;;;4.03;;
23434;SDS011;11890;45.380;11.028;2022-10-30T16:35:29;10.38;;;3.97;;
23434;SDS011;11890;45.380;11.028;2022-10-30T16:37:56;12.88;;;6.25;;
23434;SDS011;11890;45.380;11.028;2022-10-30T16:40:26;22.90;;;4.95;;
23434;SDS011;11890;45.380;11.028;2022-10-30T16:42:55;8.85;;;5.22;;
23434;SDS011;11890;45.380;11.028;2022-10-30T16:50:35;14.70;;;4.60;;
23434;SDS011;11890;45.380;11.028;2022-10-30T16:53:04;14.05;;;6.05;;
23434;SDS011;11890;45.380;11.028;2022-10-30T16:55:33;15.52;;;5.53;;
23434;SDS011;11890;45.380;11.028;2022-10-30T16:58:04;13.68;;;5.32;;
23434;SDS011;11890;45.380;11.028;2022-10-30T17:00:31;11.50;;;5.57;;
23434;SDS011;11890;45.380;11.028;2022-10-30T17:03:09;12.13;;;6.28;;
23434;SDS011;11890;45.380;11.028;2022-10-30T17:05:37;18.90;;;7.93;;
23434;SDS011;11890;45.380;11.028;2022-10-30T17:10:54;9.95;;;5.07;;
23434;SDS011;11890;45.380;11.028;2022-10-30T17:18:54;19.73;;;7.57;;
23434;SDS011;11890;45.380;11.028;2022-10-30T17:21:44;41.42;;;19.83;;
23434;SDS011;11890;45.380;11.028;2022-10-30T17:24:17;27.45;;;12.95;;
23434;SDS011;11890;45.380;11.028;2022-10-30T17:29:55;16.60;;;7.97;;
23434;SDS011;11890;45.380;11.028;2022-10-30T17:32:40;24.10;;;9.88;;
23434;SDS011;11890;45.380;11.028;2022-10-30T17:35:12;22.00;;;9.15;;
23434;SDS011;11890;45.380;11.028;2022-10-30T17:37:41;18.73;;;9.23;;
23434;SDS011;11890;45.380;11.028;2022-10-30T17:40:09;22.00;;;9.02;;
23434;SDS011;11890;45.380;11.028;2022-10-30T17:42:38;27.92;;;10.68;;
23434;SDS011;11890;45.380;11.028;2022-10-30T17:45:06;27.38;;;10.18;;
23434;SDS011;11890;45.380;11.028;2022-10-30T17:47:36;22.33;;;9.30;;
23434;SDS011;11890;45.380;11.028;2022-10-30T17:50:04;24.30;;;10.95;;
23434;SDS011;11890;45.380;11.028;2022-10-30T17:52:31;22.88;;;9.30;;
23434;SDS011;11890;45.380;11.028;2022-10-30T17:55:01;23.85;;;10.57;;
23434;SDS011;11890;45.380;11.028;2022-10-30T17:57:33;22.90;;;9.60;;